sensor_id;sensor_type;location;lat;lon;timestamp;P1;durP1;ratioP1;P2;durP2;ratioP2
28311;SDS011;15572;48.810;9.148;2023-06-14T00:00:23;7.50;;;4.50;;
28311;SDS011;15572;48.810;9.148;2023-06-14T00:05:21;5.30;;;4.20;;
28311;SDS011;15572;48.810;9.148;2023-06-14T00:10:18;7.37;;;4.40;;
28311;SDS011;15572;48.810;9.148;2023-06-14T00:15:15;6.43;;;4.03;;
28311;SDS011;15572;48.810;9.148;2023-06-14T00:20:11;5.57;;;4.40;;
28311;SDS011;15572;48.810;9.148;2023-06-14T00:25:09;5.50;;;4.23;;
28311;SDS011;15572;48.810;9.148;2023-06-14T00:30:06;6.60;;;4.60;;
28311;SDS011;15572;48.810;9.148;2023-06-14T00:35:03;7.63;;;4.80;;
28311;SDS011;15572;48.810;9.148;2023-06-14T00:40:01;5.43;;;4.50;;
28311;SDS011;15572;48.810;9.148;2023-06-14T00:45:00;6.20;;;4.77;;
28311;SDS011;15572;48.810;9.148;2023-06-14T00:49:57;6.17;;;4.70;;
28311;SDS011;15572;48.810;9.148;2023-06-14T00:54:56;7.77;;;4.50;;
28311;SDS011;15572;48.810;9.148;2023-06-14T00:59:52;5.23;;;4.40;;
28311;SDS011;15572;48.810;9.148;2023-06-14T01:04:51;8.70;;;4.63;;
28311;SDS011;15572;48.810;9.148;2023-06-14T01:09:52;9.20;;;4.60;;
28311;SDS011;15572;48.810;9.148;2023-06-14T01:14:59;7.23;;;4.50;;
28311;SDS011;15572;48.810;9.148;2023-06-14T01:19:58;8.57;;;4.80;;
28311;SDS011;15572;48.810;9.148;2023-06-14T01:24:56;7.43;;;4.80;;
28311;SDS011;15572;48.810;9.148;2023-06-14T01:29:53;5.67;;;4.50;;
28311;SDS011;15572;48.810;9.148;2023-06-14T01:34:51;8.27;;;4.33;;
28311;SDS011;15572;48.810;9.148;2023-06-14T01:39:48;6.40;;;4.53;;
28311;SDS011;15572;48.810;9.148;2023-06-14T01:44:47;10.47;;;4.80;;
28311;SDS011;15572;48.810;9.148;2023-06-14T01:49:45;6.77;;;4.87;;
28311;SDS011;15572;48.810;9.148;2023-06-14T01:54:42;6.10;;;4.67;;
28311;SDS011;15572;48.810;9.148;2023-06-14T01:59:38;6.57;;;4.77;;
28311;SDS011;15572;48.810;9.148;2023-06-14T02:04:36;7.10;;;4.67;;
28311;SDS011;15572;48.810;9.148;2023-06-14T02:09:33;12.03;;;5.33;;
28311;SDS011;15572;48.810;9.148;2023-06-14T02:14:29;5.93;;;4.30;;
28311;SDS011;15572;48.810;9.148;2023-06-14T02:19:26;9.90;;;4.80;;
28311;SDS011;15572;48.810;9.148;2023-06-14T02:24:24;8.67;;;5.10;;
28311;SDS011;15572;48.810;9.148;2023-06-14T02:29:20;5.50;;;4.90;;
28311;SDS011;15572;48.810;9.148;2023-06-14T02:34:17;6.33;;;4.90;;
28311;SDS011;15572;48.810;9.148;2023-06-14T02:39:14;9.57;;;4.80;;
28311;SDS011;15572;48.810;9.148;2023-06-14T02:44:12;6.67;;;4.53;;
28311;SDS011;15572;48.810;9.148;2023-06-14T02:49:10;6.43;;;4.53;;
28311;SDS011;15572;48.810;9.148;2023-06-14T02:54:06;7.73;;;5.10;;
28311;SDS011;15572;48.810;9.148;2023-06-14T02:59:02;12.13;;;5.17;;
28311;SDS011;15572;48.810;9.148;2023-06-14T03:04:00;9.50;;;5.20;;
28311;SDS011;15572;48.810;9.148;2023-06-14T03:08:58;5.87;;;4.80;;
28311;SDS011;15572;48.810;9.148;2023-06-14T03:13:56;7.43;;;5.00;;
28311;SDS011;15572;48.810;9.148;2023-06-14T03:18:52;8.63;;;4.63;;
28311;SDS011;15572;48.810;9.148;2023-06-14T03:23:50;7.10;;;5.40;;
28311;SDS011;15572;48.810;9.148;2023-06-14T03:28:47;8.53;;;5.30;;
28311;SDS011;15572;48.810;9.148;2023-06-14T03:33:44;7.13;;;5.10;;
28311;SDS011;15572;48.810;9.148;2023-06-14T03:38:41;6.03;;;4.80;;
28311;SDS011;15572;48.810;9.148;2023-06-14T03:43:38;5.30;;;4.70;;
28311;SDS011;15572;48.810;9.148;2023-06-14T03:48:35;7.97;;;5.00;;
28311;SDS011;15572;48.810;9.148;2023-06-14T03:53:32;7.13;;;4.53;;
28311;SDS011;15572;48.810;9.148;2023-06-14T03:58:30;7.50;;;5.20;;
28311;SDS011;15572;48.810;9.148;2023-06-14T04:03:28;8.40;;;4.80;;
28311;SDS011;15572;48.810;9.148;2023-06-14T04:08:25;6.83;;;4.80;;
28311;SDS011;15572;48.810;9.148;2023-06-14T04:13:21;7.63;;;5.17;;
28311;SDS011;15572;48.810;9.148;2023-06-14T04:18:18;7.10;;;5.20;;
28311;SDS011;15572;48.810;9.148;2023-06-14T04:23:17;8.77;;;5.33;;
28311;SDS011;15572;48.810;9.148;2023-06-14T04:28:14;10.60;;;5.80;;
28311;SDS011;15572;48.810;9.148;2023-06-14T04:33:12;6.83;;;5.33;;
28311;SDS011;15572;48.810;9.148;2023-06-14T04:38:09;8.53;;;5.67;;
28311;SDS011;15572;48.810;9.148;2023-06-14T04:43:07;9.20;;;5.80;;
28311;SDS011;15572;48.810;9.148;2023-06-14T04:48:04;12.90;;;6.23;;
28311;SDS011;15572;48.810;9.148;2023-06-14T04:53:01;8.73;;;5.57;;
28311;SDS011;15572;48.810;9.148;2023-06-14T04:57:58;7.63;;;5.67;;
28311;SDS011;15572;48.810;9.148;2023-06-14T05:02:56;7.63;;;5.70;;
28311;SDS011;15572;48.810;9.148;2023-06-14T05:07:53;9.10;;;5.93;;
28311;SDS011;15572;48.810;9.148;2023-06-14T05:12:49;9.00;;;5.93;;
28311;SDS011;15572;48.810;9.148;2023-06-14T05:17:47;9.30;;;6.07;;
28311;SDS011;15572;48.810;9.148;2023-06-14T05:22:49;8.47;;;5.90;;
28311;SDS011;15572;48.810;9.148;2023-06-14T05:27:47;7.70;;;5.70;;
28311;SDS011;15572;48.810;9.148;2023-06-14T05:32:43;10.17;;;6.07;;
28311;SDS011;15572;48.810;9.148;2023-06-14T05:37:40;8.57;;;6.00;;
28311;SDS011;15572;48.810;9.148;2023-06-14T05:42:37;8.40;;;5.70;;
28311;SDS011;15572;48.810;9.148;2023-06-14T05:47:34;7.03;;;5.77;;
28311;SDS011;15572;48.810;9.148;2023-06-14T05:52:31;9.47;;;6.10;;
28311;SDS011;15572;48.810;9.148;2023-06-14T05:57:27;11.23;;;5.87;;
28311;SDS011;15572;48.810;9.148;2023-06-14T06:02:25;6.50;;;5.57;;
28311;SDS011;15572;48.810;9.148;2023-06-14T06:07:21;9.47;;;5.60;;
28311;SDS011;15572;48.810;9.148;2023-06-14T06:12:18;8.53;;;5.50;;
28311;SDS011;15572;48.810;9.148;2023-06-14T06:17:14;9.10;;;5.50;;
28311;SDS011;15572;48.810;9.148;2023-06-14T06:22:12;7.70;;;5.37;;
28311;SDS011;15572;48.810;9.148;2023-06-14T06:27:08;7.23;;;5.50;;
28311;SDS011;15572;48.810;9.148;2023-06-14T06:32:05;8.37;;;5.90;;
28311;SDS011;15572;48.810;9.148;2023-06-14T06:37:02;8.37;;;5.60;;
28311;SDS011;15572;48.810;9.148;2023-06-14T06:42:00;11.17;;;5.93;;
28311;SDS011;15572;48.810;9.148;2023-06-14T06:46:57;8.67;;;5.20;;
28311;SDS011;15572;48.810;9.148;2023-06-14T06:51:59;8.60;;;5.10;;
28311;SDS011;15572;48.810;9.148;2023-06-14T06:56:57;8.43;;;5.57;;
28311;SDS011;15572;48.810;9.148;2023-06-14T07:01:54;6.77;;;5.10;;
28311;SDS011;15572;48.810;9.148;2023-06-14T07:06:51;7.83;;;5.70;;
28311;SDS011;15572;48.810;9.148;2023-06-14T07:11:47;6.13;;;4.87;;
28311;SDS011;15572;48.810;9.148;2023-06-14T07:16:44;6.00;;;5.03;;
28311;SDS011;15572;48.810;9.148;2023-06-14T07:21:43;8.77;;;5.18;;
28311;SDS011;15572;48.810;9.148;2023-06-14T07:26:39;8.88;;;5.05;;
28311;SDS011;15572;48.810;9.148;2023-06-14T07:31:36;6.20;;;4.87;;
28311;SDS011;15572;48.810;9.148;2023-06-14T07:36:32;6.33;;;5.17;;
28311;SDS011;15572;48.810;9.148;2023-06-14T07:41:30;6.90;;;5.13;;
28311;SDS011;15572;48.810;9.148;2023-06-14T07:46:26;7.67;;;5.07;;
28311;SDS011;15572;48.810;9.148;2023-06-14T07:51:23;6.97;;;4.88;;
28311;SDS011;15572;48.810;9.148;2023-06-14T07:56:19;9.85;;;5.75;;
28311;SDS011;15572;48.810;9.148;2023-06-14T08:01:17;9.95;;;5.28;;
28311;SDS011;15572;48.810;9.148;2023-06-14T08:06:15;10.70;;;5.13;;
28311;SDS011;15572;48.810;9.148;2023-06-14T08:11:14;7.88;;;5.45;;
28311;SDS011;15572;48.810;9.148;2023-06-14T08:16:11;13.65;;;5.45;;
28311;SDS011;15572;48.810;9.148;2023-06-14T08:21:08;8.82;;;5.28;;
28311;SDS011;15572;48.810;9.148;2023-06-14T08:26:05;13.80;;;5.45;;
28311;SDS011;15572;48.810;9.148;2023-06-14T08:31:01;10.98;;;5.00;;
28311;SDS011;15572;48.810;9.148;2023-06-14T08:35:58;10.20;;;4.95;;
28311;SDS011;15572;48.810;9.148;2023-06-14T08:40:57;7.38;;;5.07;;
28311;SDS011;15572;48.810;9.148;2023-06-14T08:45:56;8.20;;;5.07;;
28311;SDS011;15572;48.810;9.148;2023-06-14T08:50:56;10.10;;;4.95;;
28311;SDS011;15572;48.810;9.148;2023-06-14T08:55:58;9.95;;;5.50;;
28311;SDS011;15572;48.810;9.148;2023-06-14T09:00:56;7.80;;;5.30;;
28311;SDS011;15572;48.810;9.148;2023-06-14T09:05:53;8.85;;;5.47;;
28311;SDS011;15572;48.810;9.148;2023-06-14T09:10:50;7.88;;;5.40;;
28311;SDS011;15572;48.810;9.148;2023-06-14T09:15:48;10.35;;;5.43;;
28311;SDS011;15572;48.810;9.148;2023-06-14T09:20:45;9.55;;;5.53;;
28311;SDS011;15572;48.810;9.148;2023-06-14T09:25:43;5.95;;;4.90;;
28311;SDS011;15572;48.810;9.148;2023-06-14T09:30:41;10.00;;;5.07;;
28311;SDS011;15572;48.810;9.148;2023-06-14T09:35:39;7.78;;;5.22;;
28311;SDS011;15572;48.810;9.148;2023-06-14T09:40:36;7.22;;;5.32;;
28311;SDS011;15572;48.810;9.148;2023-06-14T09:45:32;9.27;;;5.30;;
28311;SDS011;15572;48.810;9.148;2023-06-14T09:50:29;6.43;;;5.40;;
28311;SDS011;15572;48.810;9.148;2023-06-14T09:55:27;8.95;;;5.47;;
28311;SDS011;15572;48.810;9.148;2023-06-14T10:00:26;6.20;;;5.05;;
28311;SDS011;15572;48.810;9.148;2023-06-14T10:05:26;6.05;;;4.85;;
28311;SDS011;15572;48.810;9.148;2023-06-14T10:10:24;6.60;;;4.07;;
28311;SDS011;15572;48.810;9.148;2023-06-14T10:15:23;7.82;;;4.13;;
28311;SDS011;15572;48.810;9.148;2023-06-14T10:20:28;8.48;;;4.57;;
28311;SDS011;15572;48.810;9.148;2023-06-14T10:25:29;7.45;;;4.90;;
28311;SDS011;15572;48.810;9.148;2023-06-14T10:30:28;13.65;;;5.00;;
28311;SDS011;15572;48.810;9.148;2023-06-14T10:35:24;7.00;;;4.60;;
28311;SDS011;15572;48.810;9.148;2023-06-14T10:40:29;7.82;;;4.63;;
28311;SDS011;15572;48.810;9.148;2023-06-14T10:45:28;7.78;;;4.72;;
28311;SDS011;15572;48.810;9.148;2023-06-14T10:50:27;6.97;;;4.60;;
28311;SDS011;15572;48.810;9.148;2023-06-14T10:55:24;7.28;;;4.53;;
28311;SDS011;15572;48.810;9.148;2023-06-14T11:00:21;6.72;;;4.30;;
28311;SDS011;15572;48.810;9.148;2023-06-14T11:05:23;7.50;;;4.68;;
28311;SDS011;15572;48.810;9.148;2023-06-14T11:10:26;5.30;;;4.25;;
28311;SDS011;15572;48.810;9.148;2023-06-14T11:15:31;5.50;;;4.25;;
28311;SDS011;15572;48.810;9.148;2023-06-14T11:20:31;5.82;;;3.97;;
28311;SDS011;15572;48.810;9.148;2023-06-14T11:25:29;6.57;;;3.90;;
28311;SDS011;15572;48.810;9.148;2023-06-14T11:30:25;5.60;;;3.63;;
28311;SDS011;15572;48.810;9.148;2023-06-14T11:35:22;18.23;;;4.18;;
28311;SDS011;15572;48.810;9.148;2023-06-14T11:40:22;7.43;;;4.38;;
28311;SDS011;15572;48.810;9.148;2023-06-14T11:45:19;5.30;;;4.07;;
28311;SDS011;15572;48.810;9.148;2023-06-14T11:50:16;7.80;;;4.15;;
28311;SDS011;15572;48.810;9.148;2023-06-14T11:55:13;4.53;;;3.60;;
28311;SDS011;15572;48.810;9.148;2023-06-14T12:00:11;5.35;;;3.90;;
28311;SDS011;15572;48.810;9.148;2023-06-14T12:05:10;4.85;;;3.85;;
28311;SDS011;15572;48.810;9.148;2023-06-14T12:10:07;5.25;;;3.95;;
28311;SDS011;15572;48.810;9.148;2023-06-14T12:15:06;6.85;;;4.38;;
28311;SDS011;15572;48.810;9.148;2023-06-14T12:20:09;5.43;;;3.85;;
28311;SDS011;15572;48.810;9.148;2023-06-14T12:25:08;6.05;;;3.92;;
28311;SDS011;15572;48.810;9.148;2023-06-14T12:30:06;6.57;;;3.90;;
28311;SDS011;15572;48.810;9.148;2023-06-14T12:35:04;5.82;;;4.28;;
28311;SDS011;15572;48.810;9.148;2023-06-14T12:40:02;4.95;;;4.13;;
28311;SDS011;15572;48.810;9.148;2023-06-14T12:45:01;7.25;;;3.85;;
28311;SDS011;15572;48.810;9.148;2023-06-14T12:49:58;4.72;;;3.80;;
28311;SDS011;15572;48.810;9.148;2023-06-14T12:54:54;7.82;;;3.95;;
28311;SDS011;15572;48.810;9.148;2023-06-14T12:59:52;4.50;;;3.70;;
28311;SDS011;15572;48.810;9.148;2023-06-14T13:04:49;5.82;;;3.63;;
28311;SDS011;15572;48.810;9.148;2023-06-14T13:09:45;4.85;;;3.53;;
28311;SDS011;15572;48.810;9.148;2023-06-14T13:14:41;5.93;;;3.90;;
28311;SDS011;15572;48.810;9.148;2023-06-14T13:19:39;7.00;;;4.30;;
28311;SDS011;15572;48.810;9.148;2023-06-14T13:24:37;5.03;;;3.60;;
28311;SDS011;15572;48.810;9.148;2023-06-14T13:29:33;5.97;;;3.88;;
28311;SDS011;15572;48.810;9.148;2023-06-14T13:34:30;7.05;;;4.03;;
28311;SDS011;15572;48.810;9.148;2023-06-14T13:39:28;4.53;;;3.65;;
28311;SDS011;15572;48.810;9.148;2023-06-14T13:44:25;5.47;;;4.07;;
28311;SDS011;15572;48.810;9.148;2023-06-14T13:49:21;6.55;;;4.00;;
28311;SDS011;15572;48.810;9.148;2023-06-14T13:54:19;8.15;;;4.18;;
28311;SDS011;15572;48.810;9.148;2023-06-14T13:59:17;6.55;;;4.00;;
28311;SDS011;15572;48.810;9.148;2023-06-14T14:04:14;6.07;;;4.13;;
28311;SDS011;15572;48.810;9.148;2023-06-14T14:09:11;8.52;;;3.85;;
28311;SDS011;15572;48.810;9.148;2023-06-14T14:14:07;6.75;;;3.88;;
28311;SDS011;15572;48.810;9.148;2023-06-14T14:19:06;7.07;;;4.15;;
28311;SDS011;15572;48.810;9.148;2023-06-14T14:24:03;7.80;;;3.78;;
28311;SDS011;15572;48.810;9.148;2023-06-14T14:29:00;6.75;;;4.50;;
28311;SDS011;15572;48.810;9.148;2023-06-14T14:33:57;4.85;;;4.03;;
28311;SDS011;15572;48.810;9.148;2023-06-14T14:38:55;5.53;;;3.97;;
28311;SDS011;15572;48.810;9.148;2023-06-14T14:43:52;6.35;;;4.18;;
28311;SDS011;15572;48.810;9.148;2023-06-14T14:48:48;5.93;;;4.20;;
28311;SDS011;15572;48.810;9.148;2023-06-14T14:53:44;6.00;;;4.05;;
28311;SDS011;15572;48.810;9.148;2023-06-14T14:58:42;6.15;;;3.83;;
28311;SDS011;15572;48.810;9.148;2023-06-14T15:03:39;8.05;;;3.90;;
28311;SDS011;15572;48.810;9.148;2023-06-14T15:08:35;6.30;;;4.28;;
28311;SDS011;15572;48.810;9.148;2023-06-14T15:13:32;5.72;;;4.07;;
28311;SDS011;15572;48.810;9.148;2023-06-14T15:18:30;6.07;;;4.53;;
28311;SDS011;15572;48.810;9.148;2023-06-14T15:23:26;5.22;;;4.07;;
28311;SDS011;15572;48.810;9.148;2023-06-14T15:28:23;7.72;;;4.13;;
28311;SDS011;15572;48.810;9.148;2023-06-14T15:33:23;6.00;;;4.15;;
28311;SDS011;15572;48.810;9.148;2023-06-14T15:38:21;4.32;;;3.92;;
28311;SDS011;15572;48.810;9.148;2023-06-14T15:43:17;5.05;;;4.05;;
28311;SDS011;15572;48.810;9.148;2023-06-14T15:48:14;5.43;;;4.00;;
28311;SDS011;15572;48.810;9.148;2023-06-14T15:53:11;5.30;;;3.50;;
28311;SDS011;15572;48.810;9.148;2023-06-14T15:58:09;6.60;;;4.10;;
28311;SDS011;15572;48.810;9.148;2023-06-14T16:03:05;6.90;;;4.40;;
28311;SDS011;15572;48.810;9.148;2023-06-14T16:08:02;7.47;;;4.20;;
28311;SDS011;15572;48.810;9.148;2023-06-14T16:12:59;5.15;;;3.53;;
28311;SDS011;15572;48.810;9.148;2023-06-14T16:17:56;5.18;;;4.07;;
28311;SDS011;15572;48.810;9.148;2023-06-14T16:22:53;6.55;;;4.10;;
28311;SDS011;15572;48.810;9.148;2023-06-14T16:27:49;4.85;;;3.85;;
28311;SDS011;15572;48.810;9.148;2023-06-14T16:32:46;5.68;;;3.80;;
28311;SDS011;15572;48.810;9.148;2023-06-14T16:37:44;7.60;;;3.97;;
28311;SDS011;15572;48.810;9.148;2023-06-14T16:42:40;5.20;;;3.90;;
28311;SDS011;15572;48.810;9.148;2023-06-14T16:47:37;4.68;;;3.65;;
28311;SDS011;15572;48.810;9.148;2023-06-14T16:52:33;6.03;;;3.65;;
28311;SDS011;15572;48.810;9.148;2023-06-14T16:57:31;4.30;;;3.75;;
28311;SDS011;15572;48.810;9.148;2023-06-14T17:02:27;5.53;;;4.05;;
28311;SDS011;15572;48.810;9.148;2023-06-14T17:07:24;7.10;;;3.67;;
28311;SDS011;15572;48.810;9.148;2023-06-14T17:12:20;4.47;;;4.05;;
28311;SDS011;15572;48.810;9.148;2023-06-14T17:17:18;6.72;;;4.45;;
28311;SDS011;15572;48.810;9.148;2023-06-14T17:22:15;7.90;;;4.32;;
28311;SDS011;15572;48.810;9.148;2023-06-14T17:27:11;4.80;;;4.30;;
28311;SDS011;15572;48.810;9.148;2023-06-14T17:32:08;6.28;;;3.90;;
28311;SDS011;15572;48.810;9.148;2023-06-14T17:37:06;8.27;;;4.50;;
28311;SDS011;15572;48.810;9.148;2023-06-14T17:42:02;9.23;;;4.47;;
28311;SDS011;15572;48.810;9.148;2023-06-14T17:46:59;6.50;;;4.22;;
28311;SDS011;15572;48.810;9.148;2023-06-14T17:51:56;6.22;;;4.15;;
28311;SDS011;15572;48.810;9.148;2023-06-14T17:56:54;4.50;;;4.10;;
28311;SDS011;15572;48.810;9.148;2023-06-14T18:01:50;5.30;;;4.20;;
28311;SDS011;15572;48.810;9.148;2023-06-14T18:06:47;5.22;;;4.00;;
28311;SDS011;15572;48.810;9.148;2023-06-14T18:11:43;4.80;;;4.15;;
28311;SDS011;15572;48.810;9.148;2023-06-14T18:16:41;6.15;;;4.05;;
28311;SDS011;15572;48.810;9.148;2023-06-14T18:21:37;5.93;;;4.15;;
28311;SDS011;15572;48.810;9.148;2023-06-14T18:26:34;5.38;;;3.85;;
28311;SDS011;15572;48.810;9.148;2023-06-14T18:31:31;5.13;;;4.05;;
28311;SDS011;15572;48.810;9.148;2023-06-14T18:36:29;5.65;;;4.03;;
28311;SDS011;15572;48.810;9.148;2023-06-14T18:41:26;4.38;;;3.97;;
28311;SDS011;15572;48.810;9.148;2023-06-14T18:46:22;4.55;;;4.03;;
28311;SDS011;15572;48.810;9.148;2023-06-14T18:51:19;5.53;;;4.25;;
28311;SDS011;15572;48.810;9.148;2023-06-14T18:56:17;7.60;;;4.60;;
28311;SDS011;15572;48.810;9.148;2023-06-14T19:01:13;4.65;;;4.00;;
28311;SDS011;15572;48.810;9.148;2023-06-14T19:06:10;7.43;;;4.20;;
28311;SDS011;15572;48.810;9.148;2023-06-14T19:11:06;5.40;;;4.15;;
28311;SDS011;15572;48.810;9.148;2023-06-14T19:16:04;7.47;;;4.45;;
28311;SDS011;15572;48.810;9.148;2023-06-14T19:21:00;7.05;;;4.05;;
28311;SDS011;15572;48.810;9.148;2023-06-14T19:25:57;7.30;;;4.20;;
28311;SDS011;15572;48.810;9.148;2023-06-14T19:30:53;7.65;;;4.13;;
28311;SDS011;15572;48.810;9.148;2023-06-14T19:35:51;6.43;;;4.28;;
28311;SDS011;15572;48.810;9.148;2023-06-14T19:40:47;4.60;;;4.05;;
28311;SDS011;15572;48.810;9.148;2023-06-14T19:45:44;8.55;;;4.13;;
28311;SDS011;15572;48.810;9.148;2023-06-14T19:50:41;6.50;;;4.22;;
28311;SDS011;15572;48.810;9.148;2023-06-14T19:55:40;5.93;;;4.80;;
28311;SDS011;15572;48.810;9.148;2023-06-14T20:00:36;6.75;;;4.30;;
28311;SDS011;15572;48.810;9.148;2023-06-14T20:05:32;6.22;;;4.22;;
28311;SDS011;15572;48.810;9.148;2023-06-14T20:10:29;7.43;;;4.38;;
28311;SDS011;15572;48.810;9.148;2023-06-14T20:15:27;6.05;;;4.00;;
28311;SDS011;15572;48.810;9.148;2023-06-14T20:20:23;5.70;;;4.78;;
28311;SDS011;15572;48.810;9.148;2023-06-14T20:25:20;8.80;;;4.63;;
28311;SDS011;15572;48.810;9.148;2023-06-14T20:30:16;8.23;;;4.85;;
28311;SDS011;15572;48.810;9.148;2023-06-14T20:35:14;8.38;;;4.93;;
28311;SDS011;15572;48.810;9.148;2023-06-14T20:40:18;9.60;;;4.97;;
28311;SDS011;15572;48.810;9.148;2023-06-14T20:45:16;7.07;;;4.97;;
28311;SDS011;15572;48.810;9.148;2023-06-14T20:50:14;6.50;;;5.22;;
28311;SDS011;15572;48.810;9.148;2023-06-14T20:55:11;8.77;;;5.32;;
28311;SDS011;15572;48.810;9.148;2023-06-14T21:00:07;7.50;;;5.60;;
28311;SDS011;15572;48.810;9.148;2023-06-14T21:05:06;6.93;;;5.20;;
28311;SDS011;15572;48.810;9.148;2023-06-14T21:10:05;5.50;;;4.47;;
28311;SDS011;15572;48.810;9.148;2023-06-14T21:15:02;7.37;;;4.70;;
28311;SDS011;15572;48.810;9.148;2023-06-14T21:19:59;6.13;;;4.70;;
28311;SDS011;15572;48.810;9.148;2023-06-14T21:24:56;6.77;;;4.93;;
28311;SDS011;15572;48.810;9.148;2023-06-14T21:29:53;8.63;;;4.93;;
28311;SDS011;15572;48.810;9.148;2023-06-14T21:34:50;13.25;;;5.10;;
28311;SDS011;15572;48.810;9.148;2023-06-14T21:39:46;7.37;;;5.03;;
28311;SDS011;15572;48.810;9.148;2023-06-14T21:44:43;8.00;;;4.97;;
28311;SDS011;15572;48.810;9.148;2023-06-14T21:49:42;6.15;;;4.90;;
28311;SDS011;15572;48.810;9.148;2023-06-14T21:54:40;6.10;;;5.07;;
28311;SDS011;15572;48.810;9.148;2023-06-14T21:59:37;8.47;;;5.30;;
28311;SDS011;15572;48.810;9.148;2023-06-14T22:04:34;6.83;;;5.00;;
28311;SDS011;15572;48.810;9.148;2023-06-14T22:09:32;7.00;;;4.70;;
28311;SDS011;15572;48.810;9.148;2023-06-14T22:14:30;8.60;;;5.63;;
28311;SDS011;15572;48.810;9.148;2023-06-14T22:19:28;10.90;;;5.30;;
28311;SDS011;15572;48.810;9.148;2023-06-14T22:24:25;6.70;;;5.33;;
28311;SDS011;15572;48.810;9.148;2023-06-14T22:29:23;5.90;;;5.27;;
28311;SDS011;15572;48.810;9.148;2023-06-14T22:34:19;7.27;;;5.23;;
28311;SDS011;15572;48.810;9.148;2023-06-14T22:39:16;8.23;;;5.63;;
28311;SDS011;15572;48.810;9.148;2023-06-14T22:44:13;5.40;;;4.87;;
28311;SDS011;15572;48.810;9.148;2023-06-14T22:49:13;7.87;;;5.10;;
28311;SDS011;15572;48.810;9.148;2023-06-14T22:54:10;6.23;;;4.97;;
28311;SDS011;15572;48.810;9.148;2023-06-14T22:59:06;7.70;;;5.27;;
28311;SDS011;15572;48.810;9.148;2023-06-14T23:04:03;5.70;;;4.90;;
28311;SDS011;15572;48.810;9.148;2023-06-14T23:09:02;5.77;;;4.80;;
28311;SDS011;15572;48.810;9.148;2023-06-14T23:13:59;7.87;;;5.10;;
28311;SDS011;15572;48.810;9.148;2023-06-14T23:18:55;11.77;;;5.40;;
28311;SDS011;15572;48.810;9.148;2023-06-14T23:23:52;7.47;;;5.30;;
28311;SDS011;15572;48.810;9.148;2023-06-14T23:28:50;5.70;;;4.70;;
28311;SDS011;15572;48.810;9.148;2023-06-14T23:33:48;8.23;;;5.23;;
28311;SDS011;15572;48.810;9.148;2023-06-14T23:38:45;6.90;;;5.00;;
28311;SDS011;15572;48.810;9.148;2023-06-14T23:43:43;6.77;;;5.07;;
28311;SDS011;15572;48.810;9.148;2023-06-14T23:48:41;7.33;;;5.10;;
28311;SDS011;15572;48.810;9.148;2023-06-14T23:53:38;7.83;;;5.50;;
28311;SDS011;15572;48.810;9.148;2023-06-14T23:58:35;6.73;;;5.00;;
